sensor_id;sensor_type;location;lat;lon;timestamp;temperature;humidity
20985;DHT22;10651;47.552;7.606;2022-09-09T00:00:16;17.50;99.90
20985;DHT22;10651;47.552;7.606;2022-09-09T00:06:15;17.50;99.90
20985;DHT22;10651;47.552;7.606;2022-09-09T00:11:45;17.40;99.90
20985;DHT22;10651;47.552;7.606;2022-09-09T00:14:39;17.40;99.90
20985;DHT22;10651;47.552;7.606;2022-09-09T00:28:39;17.20;99.90
20985;DHT22;10651;47.552;7.606;2022-09-09T00:31:16;17.20;99.90
20985;DHT22;10651;47.552;7.606;2022-09-09T00:33:44;17.20;99.90
20985;DHT22;10651;47.552;7.606;2022-09-09T00:36:16;17.10;99.90
20985;DHT22;10651;47.552;7.606;2022-09-09T00:38:49;17.20;99.90
20985;DHT22;10651;47.552;7.606;2022-09-09T00:44:31;17.20;99.90
20985;DHT22;10651;47.552;7.606;2022-09-09T00:57:34;17.30;99.90
20985;DHT22;10651;47.552;7.606;2022-09-09T01:00:20;17.40;99.90
20985;DHT22;10651;47.552;7.606;2022-09-09T01:06:11;17.50;99.90
20985;DHT22;10651;47.552;7.606;2022-09-09T01:14:38;17.60;99.90
20985;DHT22;10651;47.552;7.606;2022-09-09T01:17:10;17.60;99.90
20985;DHT22;10651;47.552;7.606;2022-09-09T01:25:21;17.40;99.90
20985;DHT22;10651;47.552;7.606;2022-09-09T01:27:49;17.40;99.90
20985;DHT22;10651;47.552;7.606;2022-09-09T01:30:17;17.30;99.90
20985;DHT22;10651;47.552;7.606;2022-09-09T01:32:50;17.20;99.90
20985;DHT22;10651;47.552;7.606;2022-09-09T01:35:23;17.20;99.90
20985;DHT22;10651;47.552;7.606;2022-09-09T01:37:52;17.30;99.90
20985;DHT22;10651;47.552;7.606;2022-09-09T01:40:19;17.20;99.90
20985;DHT22;10651;47.552;7.606;2022-09-09T01:42:44;17.30;99.90
20985;DHT22;10651;47.552;7.606;2022-09-09T01:45:10;17.20;99.90
20985;DHT22;10651;47.552;7.606;2022-09-09T01:47:36;17.20;99.90
20985;DHT22;10651;47.552;7.606;2022-09-09T01:50:01;17.20;99.90
20985;DHT22;10651;47.552;7.606;2022-09-09T01:52:29;17.10;99.90
20985;DHT22;10651;47.552;7.606;2022-09-09T01:54:55;17.10;99.90
20985;DHT22;10651;47.552;7.606;2022-09-09T01:57:26;17.20;99.90
20985;DHT22;10651;47.552;7.606;2022-09-09T01:59:56;17.10;99.90
20985;DHT22;10651;47.552;7.606;2022-09-09T02:02:30;17.20;99.90
20985;DHT22;10651;47.552;7.606;2022-09-09T02:07:39;17.00;99.90
20985;DHT22;10651;47.552;7.606;2022-09-09T02:12:55;17.00;99.90
20985;DHT22;10651;47.552;7.606;2022-09-09T02:18:10;17.00;99.90
20985;DHT22;10651;47.552;7.606;2022-09-09T02:20:38;16.90;99.90
20985;DHT22;10651;47.552;7.606;2022-09-09T02:23:05;16.90;99.90
20985;DHT22;10651;47.552;7.606;2022-09-09T02:25:35;17.00;99.90
20985;DHT22;10651;47.552;7.606;2022-09-09T02:28:04;16.90;99.90
20985;DHT22;10651;47.552;7.606;2022-09-09T02:30:32;16.90;99.90
20985;DHT22;10651;47.552;7.606;2022-09-09T02:33:01;16.90;99.90
20985;DHT22;10651;47.552;7.606;2022-09-09T02:35:29;16.90;99.90
20985;DHT22;10651;47.552;7.606;2022-09-09T02:37:59;16.80;99.90
20985;DHT22;10651;47.552;7.606;2022-09-09T02:40:25;16.70;99.90
20985;DHT22;10651;47.552;7.606;2022-09-09T02:42:51;16.80;99.90
20985;DHT22;10651;47.552;7.606;2022-09-09T02:45:18;16.90;99.90
20985;DHT22;10651;47.552;7.606;2022-09-09T02:47:50;16.90;99.90
20985;DHT22;10651;47.552;7.606;2022-09-09T02:50:26;16.80;99.90
20985;DHT22;10651;47.552;7.606;2022-09-09T02:53:48;16.80;99.90
20985;DHT22;10651;47.552;7.606;2022-09-09T02:56:17;16.70;99.90
20985;DHT22;10651;47.552;7.606;2022-09-09T02:58:45;16.60;99.90
20985;DHT22;10651;47.552;7.606;2022-09-09T03:01:11;16.50;99.90
20985;DHT22;10651;47.552;7.606;2022-09-09T03:03:37;16.50;99.90
20985;DHT22;10651;47.552;7.606;2022-09-09T03:06:03;16.50;99.90
20985;DHT22;10651;47.552;7.606;2022-09-09T03:08:31;16.60;99.90
20985;DHT22;10651;47.552;7.606;2022-09-09T03:10:58;16.60;99.90
20985;DHT22;10651;47.552;7.606;2022-09-09T03:13:26;16.60;99.90
20985;DHT22;10651;47.552;7.606;2022-09-09T03:15:52;16.50;99.90
20985;DHT22;10651;47.552;7.606;2022-09-09T03:18:17;16.60;99.90
20985;DHT22;10651;47.552;7.606;2022-09-09T03:20:43;16.60;99.90
20985;DHT22;10651;47.552;7.606;2022-09-09T03:23:09;16.50;99.90
20985;DHT22;10651;47.552;7.606;2022-09-09T03:25:34;16.40;99.90
20985;DHT22;10651;47.552;7.606;2022-09-09T03:28:01;16.40;99.90
20985;DHT22;10651;47.552;7.606;2022-09-09T03:30:28;16.40;99.90
20985;DHT22;10651;47.552;7.606;2022-09-09T03:32:53;16.30;99.90
20985;DHT22;10651;47.552;7.606;2022-09-09T03:35:20;16.50;99.90
20985;DHT22;10651;47.552;7.606;2022-09-09T03:37:46;16.50;99.90
20985;DHT22;10651;47.552;7.606;2022-09-09T03:40:12;16.40;99.90
20985;DHT22;10651;47.552;7.606;2022-09-09T03:42:39;16.40;99.90
20985;DHT22;10651;47.552;7.606;2022-09-09T03:45:07;16.40;99.90
20985;DHT22;10651;47.552;7.606;2022-09-09T03:47:33;16.50;99.90
20985;DHT22;10651;47.552;7.606;2022-09-09T03:49:58;16.40;99.90
20985;DHT22;10651;47.552;7.606;2022-09-09T03:52:24;16.50;99.90
20985;DHT22;10651;47.552;7.606;2022-09-09T03:54:52;16.50;99.90
20985;DHT22;10651;47.552;7.606;2022-09-09T03:57:18;16.40;99.90
20985;DHT22;10651;47.552;7.606;2022-09-09T03:59:44;16.40;99.90
20985;DHT22;10651;47.552;7.606;2022-09-09T04:02:10;16.30;99.90
20985;DHT22;10651;47.552;7.606;2022-09-09T04:04:35;16.30;99.90
20985;DHT22;10651;47.552;7.606;2022-09-09T04:07:01;16.30;99.90
20985;DHT22;10651;47.552;7.606;2022-09-09T04:09:27;16.20;99.90
20985;DHT22;10651;47.552;7.606;2022-09-09T04:11:53;16.20;99.90
20985;DHT22;10651;47.552;7.606;2022-09-09T04:39:07;16.30;99.90
20985;DHT22;10651;47.552;7.606;2022-09-09T05:10:30;16.40;99.90
20985;DHT22;10651;47.552;7.606;2022-09-09T05:13:29;16.40;99.90
20985;DHT22;10651;47.552;7.606;2022-09-09T05:27:55;16.50;99.90
20985;DHT22;10651;47.552;7.606;2022-09-09T05:30:46;16.50;99.90
20985;DHT22;10651;47.552;7.606;2022-09-09T05:33:55;16.60;99.90
20985;DHT22;10651;47.552;7.606;2022-09-09T05:36:33;16.60;99.90
20985;DHT22;10651;47.552;7.606;2022-09-09T05:39:04;16.60;99.90
20985;DHT22;10651;47.552;7.606;2022-09-09T05:41:53;16.70;99.90
20985;DHT22;10651;47.552;7.606;2022-09-09T05:44:27;16.60;99.90
20985;DHT22;10651;47.552;7.606;2022-09-09T05:47:07;16.70;99.90
20985;DHT22;10651;47.552;7.606;2022-09-09T05:59:43;17.00;99.90
20985;DHT22;10651;47.552;7.606;2022-09-09T06:06:40;17.10;99.90
20985;DHT22;10651;47.552;7.606;2022-09-09T06:09:09;17.10;99.90
20985;DHT22;10651;47.552;7.606;2022-09-09T06:11:37;17.10;99.90
20985;DHT22;10651;47.552;7.606;2022-09-09T06:14:29;17.00;99.90
20985;DHT22;10651;47.552;7.606;2022-09-09T06:17:05;16.90;99.90
20985;DHT22;10651;47.552;7.606;2022-09-09T06:19:30;16.90;99.90
20985;DHT22;10651;47.552;7.606;2022-09-09T06:21:56;17.00;99.90
20985;DHT22;10651;47.552;7.606;2022-09-09T06:24:22;17.10;99.90
20985;DHT22;10651;47.552;7.606;2022-09-09T06:26:48;17.10;99.90
20985;DHT22;10651;47.552;7.606;2022-09-09T06:29:24;17.30;99.90
20985;DHT22;10651;47.552;7.606;2022-09-09T06:32:13;17.30;99.90
20985;DHT22;10651;47.552;7.606;2022-09-09T06:41:40;17.40;99.90
20985;DHT22;10651;47.552;7.606;2022-09-09T07:43:25;18.50;99.90
20985;DHT22;10651;47.552;7.606;2022-09-09T07:53:23;18.80;99.90
20985;DHT22;10651;47.552;7.606;2022-09-09T07:58:51;19.20;99.90
20985;DHT22;10651;47.552;7.606;2022-09-09T08:01:28;19.10;99.90
20985;DHT22;10651;47.552;7.606;2022-09-09T08:04:14;19.30;99.90
20985;DHT22;10651;47.552;7.606;2022-09-09T08:06:53;19.50;99.90
20985;DHT22;10651;47.552;7.606;2022-09-09T08:17:58;19.80;99.90
20985;DHT22;10651;47.552;7.606;2022-09-09T08:20:27;19.90;99.90
20985;DHT22;10651;47.552;7.606;2022-09-09T08:22:59;19.80;99.90
20985;DHT22;10651;47.552;7.606;2022-09-09T08:29:25;20.30;99.90
20985;DHT22;10651;47.552;7.606;2022-09-09T08:50:49;21.60;99.90
20985;DHT22;10651;47.552;7.606;2022-09-09T08:53:26;22.00;99.90
20985;DHT22;10651;47.552;7.606;2022-09-09T08:56:24;22.30;99.90
20985;DHT22;10651;47.552;7.606;2022-09-09T08:59:07;22.70;99.90
20985;DHT22;10651;47.552;7.606;2022-09-09T09:01:52;23.00;99.90
20985;DHT22;10651;47.552;7.606;2022-09-09T09:12:42;22.40;99.90
20985;DHT22;10651;47.552;7.606;2022-09-09T09:15:35;22.50;99.90
20985;DHT22;10651;47.552;7.606;2022-09-09T09:18:05;22.50;99.90
20985;DHT22;10651;47.552;7.606;2022-09-09T09:20:54;22.60;99.90
20985;DHT22;10651;47.552;7.606;2022-09-09T09:23:25;23.00;99.90
20985;DHT22;10651;47.552;7.606;2022-09-09T09:26:01;23.30;99.90
20985;DHT22;10651;47.552;7.606;2022-09-09T09:31:19;23.10;99.90
20985;DHT22;10651;47.552;7.606;2022-09-09T09:33:56;23.00;99.90
20985;DHT22;10651;47.552;7.606;2022-09-09T09:36:56;23.10;99.90
20985;DHT22;10651;47.552;7.606;2022-09-09T09:39:31;23.20;99.90
20985;DHT22;10651;47.552;7.606;2022-09-09T09:42:23;23.20;99.90
20985;DHT22;10651;47.552;7.606;2022-09-09T09:44:52;23.10;99.90
20985;DHT22;10651;47.552;7.606;2022-09-09T09:47:21;23.10;99.90
20985;DHT22;10651;47.552;7.606;2022-09-09T09:49:59;23.10;99.90
20985;DHT22;10651;47.552;7.606;2022-09-09T09:53:17;23.40;99.90
20985;DHT22;10651;47.552;7.606;2022-09-09T09:55:55;23.60;99.90
20985;DHT22;10651;47.552;7.606;2022-09-09T09:58:22;23.50;99.90
20985;DHT22;10651;47.552;7.606;2022-09-09T10:00:58;23.60;99.90
20985;DHT22;10651;47.552;7.606;2022-09-09T10:03:32;23.60;99.90
20985;DHT22;10651;47.552;7.606;2022-09-09T10:06:06;23.70;99.90
20985;DHT22;10651;47.552;7.606;2022-09-09T10:08:44;23.70;99.90
20985;DHT22;10651;47.552;7.606;2022-09-09T10:11:26;23.80;99.90
20985;DHT22;10651;47.552;7.606;2022-09-09T10:20:28;24.20;99.90
20985;DHT22;10651;47.552;7.606;2022-09-09T10:23:37;24.40;99.90
20985;DHT22;10651;47.552;7.606;2022-09-09T10:42:13;26.20;99.90
20985;DHT22;10651;47.552;7.606;2022-09-09T11:03:09;25.30;99.90
20985;DHT22;10651;47.552;7.606;2022-09-09T11:05:55;25.30;99.90
20985;DHT22;10651;47.552;7.606;2022-09-09T11:08:49;25.60;99.90
20985;DHT22;10651;47.552;7.606;2022-09-09T11:20:36;25.00;99.90
20985;DHT22;10651;47.552;7.606;2022-09-09T11:23:16;25.60;99.90
20985;DHT22;10651;47.552;7.606;2022-09-09T11:25:50;26.90;99.90
20985;DHT22;10651;47.552;7.606;2022-09-09T11:28:40;27.00;99.90
20985;DHT22;10651;47.552;7.606;2022-09-09T11:40:07;27.80;99.90
20985;DHT22;10651;47.552;7.606;2022-09-09T11:42:35;27.60;99.90
20985;DHT22;10651;47.552;7.606;2022-09-09T11:47:58;26.10;99.90
20985;DHT22;10651;47.552;7.606;2022-09-09T11:53:47;25.50;99.90
20985;DHT22;10651;47.552;7.606;2022-09-09T11:55:41;26.40;99.90
20985;DHT22;10651;47.552;7.606;2022-09-09T12:00:58;27.80;99.90
20985;DHT22;10651;47.552;7.606;2022-09-09T12:09:26;32.30;96.90
20985;DHT22;10651;47.552;7.606;2022-09-09T12:15:35;30.70;93.50
20985;DHT22;10651;47.552;7.606;2022-09-09T12:21:38;31.00;93.50
20985;DHT22;10651;47.552;7.606;2022-09-09T12:27:33;36.50;85.30
20985;DHT22;10651;47.552;7.606;2022-09-09T12:30:20;38.30;78.80
20985;DHT22;10651;47.552;7.606;2022-09-09T12:33:15;34.20;78.60
20985;DHT22;10651;47.552;7.606;2022-09-09T12:39:37;28.20;93.00
20985;DHT22;10651;47.552;7.606;2022-09-09T12:42:18;27.20;93.80
20985;DHT22;10651;47.552;7.606;2022-09-09T12:45:14;26.60;94.60
20985;DHT22;10651;47.552;7.606;2022-09-09T12:47:50;25.90;95.20
20985;DHT22;10651;47.552;7.606;2022-09-09T12:50:18;25.40;95.50
20985;DHT22;10651;47.552;7.606;2022-09-09T12:52:50;25.30;96.00
20985;DHT22;10651;47.552;7.606;2022-09-09T12:55:27;25.00;95.10
20985;DHT22;10651;47.552;7.606;2022-09-09T12:57:57;24.50;94.90
20985;DHT22;10651;47.552;7.606;2022-09-09T13:00:28;23.90;95.60
20985;DHT22;10651;47.552;7.606;2022-09-09T13:03:14;23.60;95.90
20985;DHT22;10651;47.552;7.606;2022-09-09T13:05:42;23.40;96.40
20985;DHT22;10651;47.552;7.606;2022-09-09T13:08:15;23.30;97.10
20985;DHT22;10651;47.552;7.606;2022-09-09T13:11:01;23.30;97.40
20985;DHT22;10651;47.552;7.606;2022-09-09T13:14:03;23.40;97.70
20985;DHT22;10651;47.552;7.606;2022-09-09T13:16:58;23.70;98.30
20985;DHT22;10651;47.552;7.606;2022-09-09T13:19:25;24.30;98.00
20985;DHT22;10651;47.552;7.606;2022-09-09T13:22:00;28.00;96.20
20985;DHT22;10651;47.552;7.606;2022-09-09T13:24:33;27.10;94.30
20985;DHT22;10651;47.552;7.606;2022-09-09T13:27:32;26.40;95.30
20985;DHT22;10651;47.552;7.606;2022-09-09T13:30:18;30.70;94.40
20985;DHT22;10651;47.552;7.606;2022-09-09T13:36:27;38.70;77.40
20985;DHT22;10651;47.552;7.606;2022-09-09T13:39:01;40.20;69.70
20985;DHT22;10651;47.552;7.606;2022-09-09T13:44:38;40.90;62.10
20985;DHT22;10651;47.552;7.606;2022-09-09T13:47:22;41.50;60.20
20985;DHT22;10651;47.552;7.606;2022-09-09T13:49:52;39.50;59.10
20985;DHT22;10651;47.552;7.606;2022-09-09T13:52:39;39.30;63.40
20985;DHT22;10651;47.552;7.606;2022-09-09T13:55:12;38.60;61.60
20985;DHT22;10651;47.552;7.606;2022-09-09T14:00:33;39.60;60.00
20985;DHT22;10651;47.552;7.606;2022-09-09T14:03:03;39.40;60.10
20985;DHT22;10651;47.552;7.606;2022-09-09T14:05:56;38.90;59.40
20985;DHT22;10651;47.552;7.606;2022-09-09T14:08:27;38.30;60.80
20985;DHT22;10651;47.552;7.606;2022-09-09T14:11:27;36.50;59.90
20985;DHT22;10651;47.552;7.606;2022-09-09T14:13:53;33.30;64.70
20985;DHT22;10651;47.552;7.606;2022-09-09T14:16:24;31.80;69.90
20985;DHT22;10651;47.552;7.606;2022-09-09T14:18:55;29.90;73.20
20985;DHT22;10651;47.552;7.606;2022-09-09T14:21:23;28.90;75.70
20985;DHT22;10651;47.552;7.606;2022-09-09T14:23:49;28.50;78.20
20985;DHT22;10651;47.552;7.606;2022-09-09T14:26:30;28.00;77.10
20985;DHT22;10651;47.552;7.606;2022-09-09T14:29:00;27.80;77.90
20985;DHT22;10651;47.552;7.606;2022-09-09T14:31:38;27.40;78.10
20985;DHT22;10651;47.552;7.606;2022-09-09T14:34:06;26.90;79.10
20985;DHT22;10651;47.552;7.606;2022-09-09T14:36:32;26.60;81.90
20985;DHT22;10651;47.552;7.606;2022-09-09T14:38:58;26.80;81.60
20985;DHT22;10651;47.552;7.606;2022-09-09T14:41:26;26.80;80.00
20985;DHT22;10651;47.552;7.606;2022-09-09T14:43:54;26.40;83.80
20985;DHT22;10651;47.552;7.606;2022-09-09T14:46:31;26.50;83.80
20985;DHT22;10651;47.552;7.606;2022-09-09T14:48:59;26.60;83.60
20985;DHT22;10651;47.552;7.606;2022-09-09T14:51:26;26.50;82.30
20985;DHT22;10651;47.552;7.606;2022-09-09T14:53:59;26.30;83.20
20985;DHT22;10651;47.552;7.606;2022-09-09T14:56:27;26.30;84.20
20985;DHT22;10651;47.552;7.606;2022-09-09T14:58:58;26.10;83.50
20985;DHT22;10651;47.552;7.606;2022-09-09T15:01:30;26.00;86.20
20985;DHT22;10651;47.552;7.606;2022-09-09T15:04:03;26.30;85.60
20985;DHT22;10651;47.552;7.606;2022-09-09T15:06:31;25.80;86.60
20985;DHT22;10651;47.552;7.606;2022-09-09T15:09:00;25.50;86.10
20985;DHT22;10651;47.552;7.606;2022-09-09T15:11:27;25.70;86.10
20985;DHT22;10651;47.552;7.606;2022-09-09T15:13:54;25.50;87.30
20985;DHT22;10651;47.552;7.606;2022-09-09T15:16:30;25.30;86.40
20985;DHT22;10651;47.552;7.606;2022-09-09T15:19:14;24.90;87.00
20985;DHT22;10651;47.552;7.606;2022-09-09T15:21:53;24.80;87.70
20985;DHT22;10651;47.552;7.606;2022-09-09T15:24:42;24.70;88.70
20985;DHT22;10651;47.552;7.606;2022-09-09T15:27:19;24.50;88.10
20985;DHT22;10651;47.552;7.606;2022-09-09T15:30:16;24.40;88.40
20985;DHT22;10651;47.552;7.606;2022-09-09T15:36:11;24.00;90.70
20985;DHT22;10651;47.552;7.606;2022-09-09T15:38:39;23.80;91.50
20985;DHT22;10651;47.552;7.606;2022-09-09T15:41:11;23.40;92.90
20985;DHT22;10651;47.552;7.606;2022-09-09T15:43:49;23.20;93.90
20985;DHT22;10651;47.552;7.606;2022-09-09T15:52:00;22.90;95.30
20985;DHT22;10651;47.552;7.606;2022-09-09T15:57:32;22.40;99.40
20985;DHT22;10651;47.552;7.606;2022-09-09T16:00:03;22.10;99.90
20985;DHT22;10651;47.552;7.606;2022-09-09T16:02:41;21.70;99.90
20985;DHT22;10651;47.552;7.606;2022-09-09T16:05:08;21.60;99.90
20985;DHT22;10651;47.552;7.606;2022-09-09T16:07:34;21.60;99.90
20985;DHT22;10651;47.552;7.606;2022-09-09T16:10:04;21.40;99.90
20985;DHT22;10651;47.552;7.606;2022-09-09T16:12:32;21.40;99.90
20985;DHT22;10651;47.552;7.606;2022-09-09T16:15:35;21.30;99.90
20985;DHT22;10651;47.552;7.606;2022-09-09T16:18:03;21.20;99.90
20985;DHT22;10651;47.552;7.606;2022-09-09T16:20:33;21.20;99.90
20985;DHT22;10651;47.552;7.606;2022-09-09T16:23:01;21.20;99.90
20985;DHT22;10651;47.552;7.606;2022-09-09T16:25:27;21.10;99.90
20985;DHT22;10651;47.552;7.606;2022-09-09T16:27:56;21.10;99.90
20985;DHT22;10651;47.552;7.606;2022-09-09T16:30:38;21.10;99.90
20985;DHT22;10651;47.552;7.606;2022-09-09T16:33:06;21.00;99.90
20985;DHT22;10651;47.552;7.606;2022-09-09T16:35:39;21.10;99.90
20985;DHT22;10651;47.552;7.606;2022-09-09T16:38:11;21.00;99.90
20985;DHT22;10651;47.552;7.606;2022-09-09T16:40:39;21.20;99.90
20985;DHT22;10651;47.552;7.606;2022-09-09T16:43:07;21.40;99.90
20985;DHT22;10651;47.552;7.606;2022-09-09T16:45:33;21.40;99.90
20985;DHT22;10651;47.552;7.606;2022-09-09T16:47:59;21.40;99.90
20985;DHT22;10651;47.552;7.606;2022-09-09T16:50:26;21.60;99.90
20985;DHT22;10651;47.552;7.606;2022-09-09T16:52:52;21.70;99.90
20985;DHT22;10651;47.552;7.606;2022-09-09T16:55:18;21.70;99.90
20985;DHT22;10651;47.552;7.606;2022-09-09T16:57:47;21.60;99.90
20985;DHT22;10651;47.552;7.606;2022-09-09T17:00:16;21.50;99.90
20985;DHT22;10651;47.552;7.606;2022-09-09T17:02:42;21.40;99.90
20985;DHT22;10651;47.552;7.606;2022-09-09T17:05:08;21.20;99.90
20985;DHT22;10651;47.552;7.606;2022-09-09T17:07:35;21.00;99.90
20985;DHT22;10651;47.552;7.606;2022-09-09T17:10:01;21.00;99.90
20985;DHT22;10651;47.552;7.606;2022-09-09T17:12:27;21.00;99.90
20985;DHT22;10651;47.552;7.606;2022-09-09T17:14:53;20.90;99.90
20985;DHT22;10651;47.552;7.606;2022-09-09T17:17:20;20.80;99.90
20985;DHT22;10651;47.552;7.606;2022-09-09T17:19:46;20.80;99.90
20985;DHT22;10651;47.552;7.606;2022-09-09T17:22:12;20.80;99.90
20985;DHT22;10651;47.552;7.606;2022-09-09T17:24:38;20.80;99.90
20985;DHT22;10651;47.552;7.606;2022-09-09T17:27:04;20.80;99.90
20985;DHT22;10651;47.552;7.606;2022-09-09T17:29:30;20.80;99.90
20985;DHT22;10651;47.552;7.606;2022-09-09T17:31:55;20.80;99.90
20985;DHT22;10651;47.552;7.606;2022-09-09T17:34:21;20.80;99.90
20985;DHT22;10651;47.552;7.606;2022-09-09T17:36:47;20.70;99.90
20985;DHT22;10651;47.552;7.606;2022-09-09T17:39:13;20.70;99.90
20985;DHT22;10651;47.552;7.606;2022-09-09T17:41:39;20.60;99.90
20985;DHT22;10651;47.552;7.606;2022-09-09T17:44:06;20.60;99.90
20985;DHT22;10651;47.552;7.606;2022-09-09T17:46:42;20.60;99.90
20985;DHT22;10651;47.552;7.606;2022-09-09T17:49:17;20.50;99.90
20985;DHT22;10651;47.552;7.606;2022-09-09T17:51:44;20.40;99.90
20985;DHT22;10651;47.552;7.606;2022-09-09T17:54:15;20.40;99.90
20985;DHT22;10651;47.552;7.606;2022-09-09T17:56:45;20.40;99.90
20985;DHT22;10651;47.552;7.606;2022-09-09T17:59:12;20.30;99.90
20985;DHT22;10651;47.552;7.606;2022-09-09T18:01:40;20.30;99.90
20985;DHT22;10651;47.552;7.606;2022-09-09T18:04:08;20.20;99.90
20985;DHT22;10651;47.552;7.606;2022-09-09T18:06:43;20.20;99.90
20985;DHT22;10651;47.552;7.606;2022-09-09T18:09:33;20.10;99.90
20985;DHT22;10651;47.552;7.606;2022-09-09T18:12:05;20.10;99.90
20985;DHT22;10651;47.552;7.606;2022-09-09T18:15:00;20.00;99.90
20985;DHT22;10651;47.552;7.606;2022-09-09T18:17:58;20.00;99.90
20985;DHT22;10651;47.552;7.606;2022-09-09T18:27:37;19.90;99.90
20985;DHT22;10651;47.552;7.606;2022-09-09T18:34:30;19.90;99.90
20985;DHT22;10651;47.552;7.606;2022-09-09T18:37:45;19.90;99.90
20985;DHT22;10651;47.552;7.606;2022-09-09T18:47:37;20.00;99.90
20985;DHT22;10651;47.552;7.606;2022-09-09T18:50:28;19.90;99.90
20985;DHT22;10651;47.552;7.606;2022-09-09T18:57:10;19.70;99.90
20985;DHT22;10651;47.552;7.606;2022-09-09T19:03:23;19.50;99.90
20985;DHT22;10651;47.552;7.606;2022-09-09T19:06:50;19.50;99.90
20985;DHT22;10651;47.552;7.606;2022-09-09T19:09:57;19.50;99.90
20985;DHT22;10651;47.552;7.606;2022-09-09T19:22:37;19.60;99.90
20985;DHT22;10651;47.552;7.606;2022-09-09T19:25:37;19.70;99.90
20985;DHT22;10651;47.552;7.606;2022-09-09T19:44:48;19.20;99.90
20985;DHT22;10651;47.552;7.606;2022-09-09T19:53:57;19.20;99.90
20985;DHT22;10651;47.552;7.606;2022-09-09T19:56:47;19.20;99.90
20985;DHT22;10651;47.552;7.606;2022-09-09T19:59:25;19.10;99.90
20985;DHT22;10651;47.552;7.606;2022-09-09T20:02:05;19.20;99.90
20985;DHT22;10651;47.552;7.606;2022-09-09T20:04:48;19.10;99.90
20985;DHT22;10651;47.552;7.606;2022-09-09T20:07:14;19.10;99.90
20985;DHT22;10651;47.552;7.606;2022-09-09T20:09:40;19.10;99.90
20985;DHT22;10651;47.552;7.606;2022-09-09T20:12:08;18.90;99.90
20985;DHT22;10651;47.552;7.606;2022-09-09T20:14:34;18.90;99.90
20985;DHT22;10651;47.552;7.606;2022-09-09T20:17:00;18.80;99.90
20985;DHT22;10651;47.552;7.606;2022-09-09T20:19:36;18.60;99.90
20985;DHT22;10651;47.552;7.606;2022-09-09T20:22:11;18.70;99.90
20985;DHT22;10651;47.552;7.606;2022-09-09T20:24:54;18.50;99.90
20985;DHT22;10651;47.552;7.606;2022-09-09T20:27:37;18.50;99.90
20985;DHT22;10651;47.552;7.606;2022-09-09T20:30:07;18.40;99.90
20985;DHT22;10651;47.552;7.606;2022-09-09T20:32:45;18.30;99.90
20985;DHT22;10651;47.552;7.606;2022-09-09T20:35:18;18.40;99.90
20985;DHT22;10651;47.552;7.606;2022-09-09T20:38:04;18.20;99.90
20985;DHT22;10651;47.552;7.606;2022-09-09T20:40:41;18.10;99.90
20985;DHT22;10651;47.552;7.606;2022-09-09T20:43:10;18.10;99.90
20985;DHT22;10651;47.552;7.606;2022-09-09T20:45:39;18.10;99.90
20985;DHT22;10651;47.552;7.606;2022-09-09T20:48:08;18.10;99.90
20985;DHT22;10651;47.552;7.606;2022-09-09T20:50:35;18.10;99.90
20985;DHT22;10651;47.552;7.606;2022-09-09T20:53:11;18.10;99.90
20985;DHT22;10651;47.552;7.606;2022-09-09T20:55:51;18.10;99.90
20985;DHT22;10651;47.552;7.606;2022-09-09T20:58:17;18.00;99.90
20985;DHT22;10651;47.552;7.606;2022-09-09T21:00:43;18.00;99.90
20985;DHT22;10651;47.552;7.606;2022-09-09T21:03:12;18.00;99.90
20985;DHT22;10651;47.552;7.606;2022-09-09T21:05:39;17.90;99.90
20985;DHT22;10651;47.552;7.606;2022-09-09T21:08:07;17.90;99.90
20985;DHT22;10651;47.552;7.606;2022-09-09T21:10:33;17.80;99.90
20985;DHT22;10651;47.552;7.606;2022-09-09T21:13:02;17.80;99.90
20985;DHT22;10651;47.552;7.606;2022-09-09T21:15:28;17.70;99.90
20985;DHT22;10651;47.552;7.606;2022-09-09T21:17:54;17.70;99.90
20985;DHT22;10651;47.552;7.606;2022-09-09T21:20:23;17.70;99.90
20985;DHT22;10651;47.552;7.606;2022-09-09T21:22:52;17.70;99.90
20985;DHT22;10651;47.552;7.606;2022-09-09T21:25:19;17.80;99.90
20985;DHT22;10651;47.552;7.606;2022-09-09T21:27:44;17.90;99.90
20985;DHT22;10651;47.552;7.606;2022-09-09T21:30:11;18.00;99.90
20985;DHT22;10651;47.552;7.606;2022-09-09T21:32:37;18.10;99.90
20985;DHT22;10651;47.552;7.606;2022-09-09T21:35:04;18.20;99.90
20985;DHT22;10651;47.552;7.606;2022-09-09T21:44:15;18.40;99.90
20985;DHT22;10651;47.552;7.606;2022-09-09T21:46:41;18.40;99.90
20985;DHT22;10651;47.552;7.606;2022-09-09T21:49:08;18.40;99.90
20985;DHT22;10651;47.552;7.606;2022-09-09T21:51:34;18.40;99.90
20985;DHT22;10651;47.552;7.606;2022-09-09T21:54:00;18.40;99.90
20985;DHT22;10651;47.552;7.606;2022-09-09T21:56:26;18.50;99.90
20985;DHT22;10651;47.552;7.606;2022-09-09T21:58:56;18.40;99.90
20985;DHT22;10651;47.552;7.606;2022-09-09T22:01:23;18.40;99.90
20985;DHT22;10651;47.552;7.606;2022-09-09T22:03:49;18.30;99.90
20985;DHT22;10651;47.552;7.606;2022-09-09T22:06:17;18.40;99.90
20985;DHT22;10651;47.552;7.606;2022-09-09T22:08:45;18.40;99.90
20985;DHT22;10651;47.552;7.606;2022-09-09T22:11:15;18.40;99.90
20985;DHT22;10651;47.552;7.606;2022-09-09T22:13:42;18.40;99.90
20985;DHT22;10651;47.552;7.606;2022-09-09T22:16:13;18.50;99.90
20985;DHT22;10651;47.552;7.606;2022-09-09T22:18:40;18.50;99.90
20985;DHT22;10651;47.552;7.606;2022-09-09T22:21:11;18.60;99.90
20985;DHT22;10651;47.552;7.606;2022-09-09T22:23:37;18.60;99.90
20985;DHT22;10651;47.552;7.606;2022-09-09T22:26:04;18.60;99.90
20985;DHT22;10651;47.552;7.606;2022-09-09T22:28:31;18.50;99.90
20985;DHT22;10651;47.552;7.606;2022-09-09T22:30:57;18.50;99.90
20985;DHT22;10651;47.552;7.606;2022-09-09T22:33:23;18.50;99.90
20985;DHT22;10651;47.552;7.606;2022-09-09T22:35:49;18.50;99.90
20985;DHT22;10651;47.552;7.606;2022-09-09T22:38:14;18.50;99.90
20985;DHT22;10651;47.552;7.606;2022-09-09T22:40:41;18.40;99.90
20985;DHT22;10651;47.552;7.606;2022-09-09T22:43:16;18.50;99.90
20985;DHT22;10651;47.552;7.606;2022-09-09T22:45:43;18.40;99.90
20985;DHT22;10651;47.552;7.606;2022-09-09T22:48:09;18.40;99.90
20985;DHT22;10651;47.552;7.606;2022-09-09T22:50:37;18.40;99.90
20985;DHT22;10651;47.552;7.606;2022-09-09T22:53:04;18.30;99.90
20985;DHT22;10651;47.552;7.606;2022-09-09T22:55:30;18.30;99.90
20985;DHT22;10651;47.552;7.606;2022-09-09T22:57:57;18.20;99.90
20985;DHT22;10651;47.552;7.606;2022-09-09T23:00:23;18.20;99.90
20985;DHT22;10651;47.552;7.606;2022-09-09T23:02:49;18.20;99.90
20985;DHT22;10651;47.552;7.606;2022-09-09T23:05:19;18.20;99.90
20985;DHT22;10651;47.552;7.606;2022-09-09T23:07:47;18.10;99.90
